Time;durP1;ratioP1;P1;durP2;ratioP2;P2;SDS_P1;SDS_P2;PMS_P1;PMS_P2;Temp;Humidity;BMP_temperature;BMP_pressure;BME280_temperature;BME280_humidity;BME280_pressure;Samples;Min_cycle;Max_cycle;Signal;HPM_P1;HPM_P2
2022/05/06 00:00:34;;;;;;;8.73;5.90;;;11.70;99.90;;;;;;5104465;28;20649;-85
2022/05/06 00:03:01;;;;;;;6.27;3.40;;;11.70;99.90;;;;;;5104682;28;21488;-86
2022/05/06 00:05:30;;;;;;;7.77;5.33;;;11.70;99.90;;;;;;5102061;28;21327;-86
2022/05/06 00:07:58;;;;;;;7.37;5.03;;;11.70;99.90;;;;;;5103918;28;21179;-86
2022/05/06 00:10:26;;;;;;;6.00;4.67;;;11.70;99.90;;;;;;5103409;28;20764;-85
2022/05/06 00:12:56;;;;;;;6.50;5.17;;;11.70;99.90;;;;;;5107140;28;20623;-85
2022/05/06 00:15:24;;;;;;;4.53;3.97;;;11.70;99.90;;;;;;5106460;28;20692;-84
2022/05/06 00:17:51;;;;;;;3.93;3.50;;;11.70;99.90;;;;;;5104494;28;20651;-85
2022/05/06 00:20:19;;;;;;;4.63;4.20;;;11.70;99.90;;;;;;5103583;28;20616;-85
2022/05/06 00:22:46;;;;;;;9.73;4.37;;;11.70;99.90;;;;;;5105332;28;20803;-86
2022/05/06 00:25:16;;;;;;;7.70;3.37;;;11.70;99.90;;;;;;5105602;28;20621;-86
2022/05/06 00:27:44;;;;;;;6.80;4.77;;;11.60;99.90;;;;;;5103666;28;20874;-85
2022/05/06 00:30:12;;;;;;;6.53;5.00;;;11.70;99.90;;;;;;5095307;28;20661;-86
2022/05/06 00:32:40;;;;;;;5.13;4.37;;;11.70;99.90;;;;;;5102356;28;20658;-85
2022/05/06 00:35:08;;;;;;;6.67;4.00;;;11.70;99.90;;;;;;5102615;28;20677;-86
2022/05/06 00:37:36;;;;;;;4.80;4.17;;;11.80;99.90;;;;;;5103450;28;21420;-87
2022/05/06 00:40:03;;;;;;;5.77;4.60;;;11.70;99.90;;;;;;5103406;28;20652;-86
2022/05/06 00:42:32;;;;;;;6.10;4.57;;;11.80;99.90;;;;;;5103927;28;20687;-86
2022/05/06 00:45:01;;;;;;;6.03;4.47;;;11.70;99.90;;;;;;5105832;28;20632;-86
2022/05/06 00:47:30;;;;;;;4.80;4.30;;;11.70;99.90;;;;;;5103143;28;20637;-86
2022/05/06 00:49:57;;;;;;;4.70;3.87;;;11.70;99.90;;;;;;5102957;28;20677;-85
2022/05/06 00:52:24;;;;;;;4.97;4.57;;;11.70;99.90;;;;;;5104035;28;20612;-86
2022/05/06 00:54:53;;;;;;;5.63;5.10;;;11.80;99.90;;;;;;5103221;28;21025;-87
2022/05/06 00:57:20;;;;;;;8.67;5.47;;;11.80;99.90;;;;;;5103394;28;20684;-86
2022/05/06 01:02:33;;;;;;;6.20;5.00;;;11.70;99.90;;;;;;5103109;28;20629;-86
2022/05/06 01:05:02;;;;;;;5.60;4.30;;;11.70;99.90;;;;;;5103201;28;20619;-85
2022/05/06 01:07:30;;;;;;;9.20;5.60;;;11.70;99.90;;;;;;5103197;28;20607;-85
2022/05/06 01:09:57;;;;;;;5.60;4.37;;;11.60;99.90;;;;;;5101828;28;20642;-86
2022/05/06 01:12:25;;;;;;;8.20;5.03;;;11.60;99.90;;;;;;5103257;28;21614;-85
2022/05/06 01:14:55;;;;;;;7.30;5.60;;;11.70;99.90;;;;;;5104645;28;20626;-86
2022/05/06 01:17:22;;;;;;;6.90;4.47;;;11.60;99.90;;;;;;5102467;28;20622;-85
2022/05/06 01:19:50;;;;;;;6.73;4.97;;;11.60;99.90;;;;;;5102749;28;20610;-86
2022/05/06 01:22:19;;;;;;;8.00;5.90;;;11.60;99.90;;;;;;5101901;28;21177;-87
2022/05/06 01:24:46;;;;;;;7.03;5.33;;;11.60;99.90;;;;;;5102325;28;20629;-86
2022/05/06 01:27:17;;;;;;;5.03;4.60;;;11.60;99.90;;;;;;5102188;28;20629;-85
2022/05/06 01:29:48;;;;;;;7.77;5.87;;;11.60;99.90;;;;;;5101274;28;20806;-86
2022/05/06 01:32:17;;;;;;;6.57;6.00;;;11.60;99.90;;;;;;5104734;28;21298;-85
2022/05/06 01:34:47;;;;;;;8.83;5.30;;;11.60;99.90;;;;;;5106180;28;20619;-86
2022/05/06 01:37:19;;;;;;;6.80;5.43;;;11.60;99.90;;;;;;5106328;28;20642;-85
2022/05/06 01:39:51;;;;;;;6.80;4.80;;;11.60;99.90;;;;;;5107272;28;20625;-85
2022/05/06 01:42:21;;;;;;;6.27;4.80;;;11.60;99.90;;;;;;5107003;28;20678;-85
2022/05/06 01:44:51;;;;;;;5.80;5.20;;;11.50;99.90;;;;;;5108937;28;20627;-87
2022/05/06 01:47:21;;;;;;;8.83;6.40;;;11.50;99.90;;;;;;5107306;28;21311;-86
2022/05/06 01:49:50;;;;;;;6.33;4.67;;;11.60;99.90;;;;;;5106651;28;21944;-86
2022/05/06 01:52:19;;;;;;;6.33;4.73;;;11.60;99.90;;;;;;5107012;28;20729;-86
2022/05/06 01:54:46;;;;;;;5.03;4.20;;;11.60;99.90;;;;;;5105800;28;20649;-85
2022/05/06 01:57:13;;;;;;;4.27;3.87;;;11.70;99.90;;;;;;5106853;28;20629;-85
2022/05/06 01:59:40;;;;;;;4.47;4.00;;;11.60;99.90;;;;;;5106313;28;20634;-85
2022/05/06 02:02:07;;;;;;;7.73;7.07;;;11.60;99.90;;;;;;5106481;28;20728;-87
2022/05/06 02:07:20;;;;;;;4.20;3.80;;;11.60;99.90;;;;;;5107130;28;20625;-85
2022/05/06 02:09:47;;;;;;;7.60;5.50;;;11.60;99.90;;;;;;5104013;28;20637;-85
2022/05/06 02:12:14;;;;;;;6.03;5.53;;;11.50;99.90;;;;;;5107185;27;20662;-85
2022/05/06 02:14:40;;;;;;;6.07;5.47;;;11.50;99.90;;;;;;5109087;28;21050;-86
2022/05/06 02:17:08;;;;;;;6.03;5.50;;;11.60;99.90;;;;;;5106328;28;20736;-85
2022/05/06 02:19:34;;;;;;;8.10;6.07;;;11.60;99.90;;;;;;5105629;28;20657;-86
2022/05/06 02:22:01;;;;;;;6.70;6.07;;;11.50;99.90;;;;;;5107024;28;20640;-86
2022/05/06 02:24:29;;;;;;;8.43;5.07;;;11.50;99.90;;;;;;5106011;28;21161;-85
2022/05/06 02:26:56;;;;;;;10.77;6.60;;;11.50;99.90;;;;;;5106175;28;20672;-85
2022/05/06 02:29:23;;;;;;;6.63;3.93;;;11.50;99.90;;;;;;5106710;28;20618;-86
2022/05/06 02:34:35;;;;;;;8.97;5.40;;;11.40;99.90;;;;;;5106476;28;20610;-84
2022/05/06 02:37:02;;;;;;;6.50;5.33;;;11.50;99.90;;;;;;5106535;28;20618;-85
2022/05/06 02:39:30;;;;;;;4.60;3.80;;;11.40;99.90;;;;;;5106189;28;20623;-85
2022/05/06 02:41:57;;;;;;;6.13;5.50;;;11.40;99.90;;;;;;5106007;28;20618;-85
2022/05/06 02:44:25;;;;;;;7.63;4.57;;;11.40;99.90;;;;;;5103799;28;20637;-84
2022/05/06 02:46:52;;;;;;;6.47;5.83;;;11.40;99.90;;;;;;5106845;28;20738;-84
2022/05/06 02:49:19;;;;;;;5.20;4.70;;;11.50;99.90;;;;;;5106920;28;20625;-85
2022/05/06 02:51:45;;;;;;;4.80;4.00;;;11.50;99.90;;;;;;5107427;28;20747;-84
2022/05/06 02:54:12;;;;;;;7.97;4.97;;;11.40;99.90;;;;;;5105929;28;20627;-86
2022/05/06 02:56:41;;;;;;;8.10;5.10;;;11.40;99.90;;;;;;5105560;28;20623;-85
2022/05/06 02:59:07;;;;;;;6.80;5.00;;;11.40;99.90;;;;;;5105663;28;20617;-86
2022/05/06 03:01:34;;;;;;;6.43;4.40;;;11.30;99.90;;;;;;5106715;28;20664;-86
2022/05/06 03:04:01;;;;;;;6.30;5.07;;;11.40;99.90;;;;;;5108736;28;20640;-85
2022/05/06 03:06:28;;;;;;;4.60;4.20;;;11.30;99.90;;;;;;5105736;28;20661;-86
2022/05/06 03:08:55;;;;;;;4.70;3.80;;;11.30;99.90;;;;;;5106405;28;20664;-85
2022/05/06 03:11:22;;;;;;;7.00;4.90;;;11.30;99.90;;;;;;5104779;28;20660;-85
2022/05/06 03:13:50;;;;;;;5.60;4.43;;;11.30;99.90;;;;;;5103610;28;20666;-85
2022/05/06 03:16:17;;;;;;;7.10;5.30;;;11.40;99.90;;;;;;5105017;28;20701;-85
2022/05/06 03:18:44;;;;;;;7.07;5.07;;;11.30;99.90;;;;;;5105515;28;20654;-85
2022/05/06 03:21:11;;;;;;;5.03;4.10;;;11.30;99.90;;;;;;5104450;28;21026;-85
2022/05/06 03:23:38;;;;;;;6.13;4.90;;;11.40;99.90;;;;;;5104425;28;20629;-86
2022/05/06 03:26:05;;;;;;;4.67;4.13;;;11.40;99.90;;;;;;5104562;28;20697;-85
2022/05/06 03:28:32;;;;;;;5.40;5.00;;;11.30;99.90;;;;;;5104382;28;20673;-85
2022/05/06 03:31:01;;;;;;;4.70;3.30;;;11.30;99.90;;;;;;5105330;28;20670;-86
2022/05/06 03:33:30;;;;;;;4.70;3.70;;;11.20;99.90;;;;;;5104667;28;20608;-85
2022/05/06 03:35:57;;;;;;;5.13;4.60;;;11.30;99.90;;;;;;5104689;28;21176;-86
2022/05/06 03:38:24;;;;;;;6.00;3.93;;;11.30;99.90;;;;;;5103340;27;21191;-85
2022/05/06 03:40:52;;;;;;;5.83;5.30;;;11.30;99.90;;;;;;5103666;28;20840;-85
2022/05/06 03:43:19;;;;;;;4.67;4.30;;;11.30;99.90;;;;;;5111935;27;20678;-85
2022/05/06 03:45:46;;;;;;;4.50;4.10;;;11.30;99.90;;;;;;5130061;27;20627;-86
2022/05/06 03:48:14;;;;;;;8.50;7.07;;;11.30;99.90;;;;;;5104921;27;20630;-85
2022/05/06 03:53:25;;;;;;;4.30;3.90;;;11.30;99.90;;;;;;5100833;28;20621;-85
2022/05/06 03:55:52;;;;;;;3.37;3.07;;;11.30;99.90;;;;;;5106215;28;20678;-84
2022/05/06 03:58:19;;;;;;;4.63;4.23;;;11.30;99.90;;;;;;5104185;28;20714;-85
2022/05/06 04:00:46;;;;;;;4.47;3.83;;;11.20;99.90;;;;;;5103163;28;20719;-86
2022/05/06 04:03:14;;;;;;;5.17;4.77;;;11.20;99.90;;;;;;5103290;28;20632;-85
2022/05/06 04:05:41;;;;;;;4.47;4.07;;;11.30;99.90;;;;;;5103255;28;20614;-85
2022/05/06 04:08:09;;;;;;;5.33;3.17;;;11.20;99.90;;;;;;5104063;28;20637;-85
2022/05/06 04:10:35;;;;;;;5.83;5.40;;;11.30;99.90;;;;;;5105322;28;20633;-86
2022/05/06 04:13:03;;;;;;;6.20;5.30;;;11.30;99.90;;;;;;5103340;28;20744;-85
2022/05/06 04:15:32;;;;;;;5.83;5.33;;;11.30;99.90;;;;;;5106443;28;20622;-85
2022/05/06 04:18:00;;;;;;;6.40;4.03;;;11.30;99.90;;;;;;5101251;28;20634;-85
2022/05/06 04:23:32;;;;;;;8.07;6.20;;;11.30;99.90;;;;;;5104025;28;20672;-85
2022/05/06 04:26:00;;;;;;;4.13;2.60;;;11.30;99.90;;;;;;5103552;28;20680;-85
2022/05/06 04:28:28;;;;;;;5.80;5.00;;;11.30;99.90;;;;;;5103335;28;20679;-85
2022/05/06 04:30:55;;;;;;;7.40;5.20;;;11.30;99.90;;;;;;5102384;28;20708;-86
2022/05/06 04:33:24;;;;;;;6.63;5.93;;;11.30;99.90;;;;;;5102892;28;20703;-85
2022/05/06 04:35:54;;;;;;;5.50;4.73;;;11.30;99.90;;;;;;5102505;28;21503;-85
2022/05/06 04:38:22;;;;;;;5.93;5.23;;;11.40;99.90;;;;;;5103199;28;20613;-85
2022/05/06 04:40:50;;;;;;;4.53;4.13;;;11.30;99.90;;;;;;5103437;28;20626;-86
2022/05/06 04:43:20;;;;;;;6.97;5.83;;;11.30;99.90;;;;;;5103034;28;20665;-85
2022/05/06 04:45:48;;;;;;;3.90;3.47;;;11.40;99.90;;;;;;5104598;28;20713;-85
2022/05/06 04:48:16;;;;;;;6.53;4.10;;;11.40;99.90;;;;;;5104227;28;21104;-85
2022/05/06 04:50:43;;;;;;;4.67;4.13;;;11.30;99.90;;;;;;5103581;28;20619;-85
2022/05/06 04:53:12;;;;;;;6.10;4.57;;;11.30;99.90;;;;;;5095118;28;21248;-85
2022/05/06 04:55:41;;;;;;;4.57;4.13;;;11.30;99.90;;;;;;5102939;28;20709;-86
2022/05/06 04:58:09;;;;;;;5.93;3.50;;;11.20;99.90;;;;;;5103680;28;20633;-86
2022/05/06 05:00:36;;;;;;;10.53;5.53;;;11.20;99.90;;;;;;5103357;28;20654;-85
2022/05/06 05:03:04;;;;;;;5.27;4.77;;;11.30;99.90;;;;;;5103281;28;20709;-85
2022/05/06 05:05:31;;;;;;;5.57;4.87;;;11.20;99.90;;;;;;5102679;28;20626;-85
2022/05/06 05:07:58;;;;;;;6.80;5.63;;;11.20;99.90;;;;;;5107283;28;20640;-87
2022/05/06 05:10:26;;;;;;;5.80;4.70;;;11.30;99.90;;;;;;5106471;28;20628;-85
2022/05/06 05:12:53;;;;;;;6.47;5.00;;;11.30;99.90;;;;;;5108988;28;21233;-85
2022/05/06 05:15:20;;;;;;;4.10;3.70;;;11.40;99.90;;;;;;5108380;28;20675;-85
2022/05/06 05:17:48;;;;;;;7.33;4.53;;;11.40;99.90;;;;;;5107079;28;20636;-85
2022/05/06 05:20:15;;;;;;;5.20;4.43;;;11.20;99.90;;;;;;5106725;28;20622;-86
2022/05/06 05:22:42;;;;;;;5.50;3.33;;;11.40;99.90;;;;;;5105396;28;20621;-86
2022/05/06 05:25:09;;;;;;;4.63;4.20;;;11.30;99.90;;;;;;5106598;28;20708;-84
2022/05/06 05:27:39;;;;;;;6.17;4.43;;;11.40;99.90;;;;;;5106612;28;20635;-85
2022/05/06 05:30:09;;;;;;;7.00;5.40;;;11.30;99.90;;;;;;5106864;28;20628;-86
2022/05/06 05:32:37;;;;;;;4.17;3.87;;;11.30;99.90;;;;;;5104940;28;20664;-87
2022/05/06 05:35:04;;;;;;;4.60;3.63;;;11.30;99.90;;;;;;5105022;28;20621;-85
2022/05/06 05:37:31;;;;;;;3.80;3.27;;;11.30;99.90;;;;;;5107482;28;20685;-85
2022/05/06 05:39:58;;;;;;;11.83;5.30;;;11.40;99.90;;;;;;5107654;28;20713;-85
2022/05/06 05:42:27;;;;;;;6.10;4.20;;;11.50;99.90;;;;;;5104811;28;20743;-86
2022/05/06 05:50:27;;;;;;;4.77;4.30;;;11.40;99.90;;;;;;5105011;28;20627;-86
2022/05/06 05:52:55;;;;;;;6.20;4.57;;;11.30;99.90;;;;;;5107790;27;20733;-85
2022/05/06 05:55:22;;;;;;;4.70;4.40;;;11.20;99.90;;;;;;5108089;28;20635;-85
2022/05/06 05:57:49;;;;;;;4.70;4.03;;;11.20;99.90;;;;;;5106603;28;20723;-85
2022/05/06 06:00:18;;;;;;;4.03;2.73;;;11.20;99.90;;;;;;5105685;27;20966;-87
2022/05/06 06:02:45;;;;;;;5.40;3.83;;;11.10;99.90;;;;;;5106093;28;20688;-85
2022/05/06 06:05:12;;;;;;;4.30;3.17;;;11.00;99.90;;;;;;5106176;28;20621;-86
2022/05/06 06:07:39;;;;;;;3.40;3.00;;;11.00;99.90;;;;;;5106278;28;20640;-86
2022/05/06 06:10:07;;;;;;;3.07;2.77;;;11.00;99.90;;;;;;5106252;28;20628;-85
2022/05/06 06:12:34;;;;;;;3.67;3.37;;;11.00;99.90;;;;;;5107551;28;21336;-85
2022/05/06 06:15:01;;;;;;;5.73;3.90;;;11.10;99.90;;;;;;5106594;28;20621;-85
2022/05/06 06:17:30;;;;;;;4.43;3.50;;;11.00;99.90;;;;;;5104996;27;20628;-85
2022/05/06 06:19:57;;;;;;;4.10;3.80;;;11.10;99.90;;;;;;5104439;28;20716;-85
2022/05/06 06:22:24;;;;;;;6.60;5.50;;;11.10;99.90;;;;;;5104597;28;21244;-85
2022/05/06 06:24:51;;;;;;;10.13;4.63;;;11.10;99.90;;;;;;5104380;28;21664;-85
2022/05/06 06:27:18;;;;;;;5.13;4.07;;;11.00;99.90;;;;;;5105106;27;21272;-86
2022/05/06 06:29:47;;;;;;;6.50;5.90;;;11.10;99.90;;;;;;5105773;28;20712;-85
2022/05/06 06:32:14;;;;;;;2.73;2.50;;;11.10;99.90;;;;;;5106864;27;20648;-84
2022/05/06 06:34:42;;;;;;;7.33;3.47;;;11.10;99.90;;;;;;5105584;28;20624;-86
2022/05/06 06:37:09;;;;;;;5.33;3.93;;;11.10;99.90;;;;;;5105989;28;20686;-86
2022/05/06 06:39:36;;;;;;;4.00;3.70;;;11.10;99.90;;;;;;5105687;28;20630;-85
2022/05/06 06:42:03;;;;;;;6.00;5.50;;;11.20;99.90;;;;;;5103827;28;20661;-85
2022/05/06 06:44:30;;;;;;;7.63;4.63;;;11.20;99.90;;;;;;5106574;28;20648;-85
2022/05/06 06:46:57;;;;;;;4.23;3.83;;;11.30;99.90;;;;;;5106323;28;20625;-85
2022/05/06 06:49:24;;;;;;;4.87;4.33;;;11.20;99.90;;;;;;5103574;28;21171;-85
2022/05/06 06:51:52;;;;;;;6.10;4.07;;;11.20;99.90;;;;;;5106876;27;21219;-85
2022/05/06 06:54:19;;;;;;;4.20;3.90;;;11.20;99.90;;;;;;5105335;28;20646;-85
2022/05/06 06:56:46;;;;;;;5.17;4.10;;;11.20;99.90;;;;;;5105969;27;20672;-85
2022/05/06 06:59:13;;;;;;;2.40;2.20;;;11.20;99.90;;;;;;5104903;27;21254;-85
2022/05/06 07:01:40;;;;;;;5.50;4.37;;;11.20;99.90;;;;;;5103791;28;20629;-84
2022/05/06 07:04:07;;;;;;;2.87;2.60;;;11.20;99.90;;;;;;5104313;27;20610;-85
2022/05/06 07:12:04;;;;;;;4.53;3.60;;;11.20;99.90;;;;;;5105094;27;20625;-86
2022/05/06 07:14:31;;;;;;;4.60;3.83;;;11.20;99.90;;;;;;5106092;28;20969;-85
2022/05/06 07:17:02;;;;;;;7.30;3.13;;;11.20;99.90;;;;;;5106279;28;21348;-85
2022/05/06 07:19:29;;;;;;;5.57;4.33;;;11.20;99.90;;;;;;5102734;28;20634;-85
2022/05/06 07:21:56;;;;;;;4.93;3.70;;;11.30;99.90;;;;;;5104631;28;20741;-86
2022/05/06 07:24:25;;;;;;;3.30;3.10;;;11.30;99.90;;;;;;5103546;28;20623;-85
2022/05/06 07:26:55;;;;;;;3.87;3.10;;;11.30;99.90;;;;;;5104144;28;21595;-85
2022/05/06 07:29:22;;;;;;;4.67;3.90;;;11.40;99.90;;;;;;5109307;28;20711;-84
2022/05/06 07:31:49;;;;;;;3.27;2.97;;;11.40;99.90;;;;;;5109941;28;20610;-85
2022/05/06 07:34:16;;;;;;;4.37;3.83;;;11.50;99.90;;;;;;5109786;28;20646;-85
2022/05/06 07:36:43;;;;;;;4.10;3.70;;;11.50;99.90;;;;;;5109931;28;20611;-85
2022/05/06 07:39:11;;;;;;;3.90;3.60;;;11.60;99.90;;;;;;5101407;28;20629;-85
2022/05/06 07:41:40;;;;;;;5.17;4.20;;;11.60;99.90;;;;;;5109855;28;20709;-85
2022/05/06 07:44:07;;;;;;;3.57;3.23;;;11.50;99.90;;;;;;5109952;28;20695;-86
2022/05/06 07:46:35;;;;;;;3.43;2.87;;;11.40;99.90;;;;;;5109554;28;20630;-85
2022/05/06 07:49:05;;;;;;;6.27;3.70;;;11.40;99.90;;;;;;5109801;28;20655;-85
2022/05/06 07:51:32;;;;;;;5.00;3.97;;;11.40;99.90;;;;;;5109838;28;21477;-85
2022/05/06 07:54:00;;;;;;;4.73;4.20;;;11.40;99.90;;;;;;5109778;28;20654;-85
2022/05/06 07:56:43;;;;;;;7.63;5.17;;;11.40;99.90;;;;;;5110013;28;21486;-84
2022/05/06 07:59:11;;;;;;;4.67;4.10;;;11.60;99.90;;;;;;5094367;28;21303;-84
2022/05/06 08:04:36;;;;;;;4.83;3.67;;;11.60;99.90;;;;;;5103092;28;21383;-84
2022/05/06 08:07:05;;;;;;;2.90;2.70;;;11.60;99.90;;;;;;5071007;28;21183;-84
2022/05/06 08:09:32;;;;;;;3.77;3.30;;;11.60;99.90;;;;;;5104137;28;21047;-85
2022/05/06 08:12:01;;;;;;;2.33;2.13;;;11.60;99.90;;;;;;5106695;28;20720;-84
2022/05/06 08:14:28;;;;;;;4.90;4.03;;;11.70;99.90;;;;;;5106720;28;20653;-85
2022/05/06 08:16:55;;;;;;;4.80;3.73;;;11.80;99.90;;;;;;5105020;28;20618;-85
2022/05/06 08:19:22;;;;;;;6.63;4.10;;;11.80;99.90;;;;;;5104831;27;21203;-84
2022/05/06 08:21:49;;;;;;;3.57;3.23;;;11.80;99.90;;;;;;5104173;28;20714;-86
2022/05/06 08:24:16;;;;;;;3.83;3.53;;;11.90;99.90;;;;;;5104493;28;20622;-85
2022/05/06 08:26:43;;;;;;;3.53;3.23;;;11.80;99.90;;;;;;5103931;28;20726;-85
2022/05/06 08:29:11;;;;;;;4.60;4.20;;;11.80;99.90;;;;;;5104907;28;20628;-84
2022/05/06 08:31:53;;;;;;;4.33;3.93;;;11.90;99.90;;;;;;5070532;27;21620;-84
2022/05/06 08:34:20;;;;;;;6.73;3.50;;;12.00;99.90;;;;;;5067255;28;20610;-84
2022/05/06 08:36:47;;;;;;;6.30;3.67;;;12.00;99.90;;;;;;5065138;28;20644;-84
2022/05/06 08:39:15;;;;;;;3.37;2.93;;;12.00;99.90;;;;;;5067810;28;21030;-84
2022/05/06 08:41:42;;;;;;;3.73;3.43;;;12.10;99.90;;;;;;5067126;28;20641;-85
2022/05/06 08:52:33;;;;;;;3.33;3.07;;;12.30;99.90;;;;;;5068638;28;20622;-84
2022/05/06 08:55:00;;;;;;;6.30;4.83;;;12.30;99.90;;;;;;5069080;28;21485;-84
2022/05/06 08:57:28;;;;;;;3.47;3.17;;;12.40;99.90;;;;;;5064489;28;20624;-84
2022/05/06 08:59:55;;;;;;;3.03;2.50;;;12.40;99.90;;;;;;5067653;28;20687;-85
2022/05/06 09:02:23;;;;;;;5.97;3.53;;;12.40;99.90;;;;;;5069939;28;20744;-84
2022/05/06 09:04:50;;;;;;;3.63;2.90;;;12.30;99.90;;;;;;5071542;28;20712;-83
2022/05/06 09:07:20;;;;;;;7.10;2.80;;;12.40;99.90;;;;;;5063433;28;20646;-84
2022/05/06 09:10:11;;;;;;;4.03;3.57;;;12.50;99.90;;;;;;5063541;28;20615;-84
2022/05/06 09:12:44;;;;;;;3.80;3.13;;;12.60;99.90;;;;;;5057363;28;20735;-84
2022/05/06 09:17:58;;;;;;;2.87;2.57;;;12.70;99.90;;;;;;5069586;28;20616;-85
2022/05/06 09:20:26;;;;;;;3.37;2.87;;;12.70;99.90;;;;;;5065211;28;20674;-85
2022/05/06 09:22:54;;;;;;;4.30;3.90;;;12.70;99.90;;;;;;5065595;28;20623;-84
2022/05/06 09:25:40;;;;;;;5.07;3.80;;;12.80;99.90;;;;;;5062594;28;20619;-85
2022/05/06 09:28:10;;;;;;;4.73;3.30;;;13.00;99.90;;;;;;5070596;28;20697;-85
2022/05/06 09:30:38;;;;;;;2.33;2.13;;;13.10;99.30;;;;;;5066258;28;20674;-85
2022/05/06 09:33:06;;;;;;;4.90;2.97;;;13.10;99.50;;;;;;5069094;28;20716;-84
2022/05/06 09:35:36;;;;;;;4.73;3.33;;;13.10;98.80;;;;;;5067989;28;20663;-86
2022/05/06 09:38:16;;;;;;;3.50;3.20;;;13.10;99.10;;;;;;5065531;28;21167;-85
2022/05/06 09:40:43;;;;;;;5.10;4.53;;;13.00;98.70;;;;;;5066111;28;20661;-84
2022/05/06 09:43:17;;;;;;;2.60;2.23;;;13.20;99.50;;;;;;5050924;28;21279;-86
2022/05/06 09:45:45;;;;;;;2.90;2.70;;;13.10;98.80;;;;;;5055827;28;20640;-86
2022/05/06 09:48:13;;;;;;;3.33;3.03;;;13.20;99.00;;;;;;5056174;28;20979;-85
2022/05/06 09:50:46;;;;;;;3.93;3.53;;;13.30;99.10;;;;;;5057081;28;20669;-85
2022/05/06 09:53:15;;;;;;;6.00;3.60;;;13.20;98.20;;;;;;5048958;28;21217;-84
2022/05/06 09:55:49;;;;;;;3.80;2.47;;;13.20;98.10;;;;;;5052361;28;22301;-85
2022/05/06 09:58:25;;;;;;;3.27;2.97;;;13.30;98.30;;;;;;5054421;28;20625;-85
2022/05/06 10:00:55;;;;;;;2.53;2.33;;;13.40;98.60;;;;;;5051247;28;20715;-85
2022/05/06 10:03:30;;;;;;;3.00;2.73;;;13.50;98.50;;;;;;5048034;28;20691;-85
2022/05/06 10:06:02;;;;;;;3.57;3.27;;;13.60;98.00;;;;;;5053179;28;20627;-85
2022/05/06 10:08:33;;;;;;;4.10;3.50;;;13.60;97.60;;;;;;5052014;28;20957;-85
2022/05/06 10:11:02;;;;;;;2.87;2.60;;;13.60;97.80;;;;;;5047594;28;20729;-85
2022/05/06 10:13:34;;;;;;;4.10;2.87;;;13.70;97.50;;;;;;5055941;28;20675;-86
2022/05/06 10:16:01;;;;;;;3.17;2.70;;;14.10;98.30;;;;;;5059069;28;20652;-85
2022/05/06 10:18:37;;;;;;;3.23;2.90;;;14.20;97.30;;;;;;5052350;28;21200;-85
2022/05/06 10:21:04;;;;;;;2.87;2.27;;;14.20;96.70;;;;;;5061421;28;20678;-84
2022/05/06 10:23:47;;;;;;;3.83;3.53;;;14.10;96.70;;;;;;5053930;28;20626;-85
2022/05/06 10:26:44;;;;;;;3.97;2.50;;;14.50;97.30;;;;;;5057150;28;20712;-85
2022/05/06 10:35:12;;;;;;;3.20;2.60;;;14.80;95.60;;;;;;5058489;28;20609;-85
2022/05/06 10:37:41;;;;;;;4.20;3.80;;;15.10;95.70;;;;;;5062195;28;20630;-84
2022/05/06 10:40:28;;;;;;;5.07;3.57;;;15.40;95.90;;;;;;5068945;28;20630;-86
2022/05/06 10:42:55;;;;;;;3.00;2.47;;;15.50;95.60;;;;;;5063336;28;20631;-84
2022/05/06 10:45:26;;;;;;;3.90;2.83;;;15.40;95.20;;;;;;5065988;28;20673;-86
2022/05/06 10:47:54;;;;;;;5.03;3.50;;;15.50;95.50;;;;;;5049607;28;20730;-85
2022/05/06 10:50:24;;;;;;;3.57;3.10;;;15.70;94.80;;;;;;5051150;28;20703;-85
2022/05/06 10:52:51;;;;;;;3.73;3.43;;;16.00;95.00;;;;;;5064295;28;20653;-84
2022/05/06 10:55:20;;;;;;;2.83;2.60;;;16.20;94.10;;;;;;5058393;28;20622;-85
2022/05/06 10:57:56;;;;;;;3.67;3.13;;;16.40;93.20;;;;;;5050012;28;20634;-85
2022/05/06 11:00:25;;;;;;;3.00;2.80;;;16.50;93.10;;;;;;5049683;28;20943;-85
2022/05/06 11:02:52;;;;;;;3.73;3.40;;;16.60;93.50;;;;;;5049846;28;20626;-85
2022/05/06 11:05:24;;;;;;;4.17;3.07;;;17.00;93.20;;;;;;5050164;28;20619;-85
2022/05/06 11:07:56;;;;;;;2.83;2.63;;;16.90;91.70;;;;;;5052236;28;21043;-85
2022/05/06 11:10:25;;;;;;;4.13;3.83;;;16.90;91.80;;;;;;5060662;28;21074;-86
2022/05/06 11:12:54;;;;;;;2.97;2.77;;;16.70;91.70;;;;;;5058745;28;20669;-85
2022/05/06 11:15:23;;;;;;;4.53;2.67;;;17.00;91.70;;;;;;5069082;28;20617;-84
2022/05/06 11:17:55;;;;;;;3.00;2.70;;;17.20;92.10;;;;;;5056000;28;21185;-85
2022/05/06 11:20:26;;;;;;;4.17;2.47;;;17.40;91.40;;;;;;5052033;28;20674;-85
2022/05/06 11:22:58;;;;;;;2.97;2.57;;;17.70;90.70;;;;;;5069858;28;20605;-84
2022/05/06 11:25:27;;;;;;;2.93;2.23;;;17.80;90.00;;;;;;5052383;28;20705;-85
2022/05/06 11:27:56;;;;;;;2.77;2.40;;;17.60;89.50;;;;;;5058426;28;21198;-85
2022/05/06 11:30:24;;;;;;;2.27;2.07;;;17.70;89.40;;;;;;5057366;28;20738;-85
2022/05/06 11:32:53;;;;;;;2.67;2.43;;;17.90;89.90;;;;;;5069037;28;20646;-85
2022/05/06 11:35:26;;;;;;;2.60;2.17;;;18.10;89.10;;;;;;5062785;28;20630;-84
2022/05/06 11:37:53;;;;;;;3.20;2.57;;;17.90;87.80;;;;;;5055829;28;20619;-85
2022/05/06 11:40:37;;;;;;;3.23;2.63;;;17.90;89.20;;;;;;5039532;28;20689;-85
2022/05/06 11:43:21;;;;;;;3.47;3.13;;;17.90;87.60;;;;;;5050450;28;20630;-84
2022/05/06 11:48:33;;;;;;;2.70;2.50;;;17.60;86.30;;;;;;5056189;28;20622;-86
2022/05/06 11:51:06;;;;;;;2.83;2.50;;;17.90;88.60;;;;;;5057287;28;20694;-84
2022/05/06 11:53:34;;;;;;;2.63;2.43;;;18.10;87.90;;;;;;5058863;28;20665;-85
2022/05/06 11:56:02;;;;;;;3.07;2.87;;;18.40;84.40;;;;;;5067461;28;20613;-86
2022/05/06 11:58:29;;;;;;;2.33;2.20;;;18.50;84.70;;;;;;5066656;28;21152;-84
2022/05/06 12:00:56;;;;;;;4.80;3.00;;;18.60;83.10;;;;;;5064736;28;20725;-86
2022/05/06 12:03:24;;;;;;;2.60;1.80;;;18.50;82.40;;;;;;5048172;28;20650;-85
2022/05/06 12:06:07;;;;;;;2.80;2.33;;;18.30;83.30;;;;;;5049084;28;20619;-85
2022/05/06 12:08:36;;;;;;;2.30;2.10;;;18.30;84.80;;;;;;5064087;28;20626;-86
2022/05/06 12:11:06;;;;;;;2.30;2.10;;;18.30;82.70;;;;;;5057195;28;20646;-86
2022/05/06 12:13:40;;;;;;;4.03;1.80;;;18.10;83.00;;;;;;5060972;28;20598;-85
2022/05/06 12:16:10;;;;;;;2.20;2.00;;;17.90;82.80;;;;;;5057381;28;20630;-85
2022/05/06 12:18:38;;;;;;;3.40;3.10;;;17.90;85.50;;;;;;5061828;28;20659;-86
2022/05/06 12:21:24;;;;;;;2.80;2.57;;;18.10;83.70;;;;;;5058419;28;20626;-87
2022/05/06 12:23:53;;;;;;;2.43;2.23;;;18.40;86.00;;;;;;5066450;28;21175;-85
2022/05/06 12:26:31;;;;;;;5.03;2.07;;;18.50;84.20;;;;;;5056151;28;20717;-85
2022/05/06 12:28:58;;;;;;;2.07;1.90;;;18.60;83.20;;;;;;5062122;28;21055;-85
2022/05/06 12:31:31;;;;;;;1.83;1.73;;;18.50;84.20;;;;;;5059911;28;21246;-86
2022/05/06 12:34:03;;;;;;;2.77;2.57;;;18.40;83.90;;;;;;5061683;28;20629;-85
2022/05/06 12:36:32;;;;;;;2.60;2.40;;;18.30;80.70;;;;;;5067899;28;20974;-85
2022/05/06 12:38:59;;;;;;;2.23;2.00;;;18.40;81.60;;;;;;5039972;28;20631;-85
2022/05/06 12:41:28;;;;;;;2.27;2.10;;;18.40;79.50;;;;;;5041465;28;21162;-85
2022/05/06 12:43:57;;;;;;;3.10;2.80;;;18.10;80.60;;;;;;5061010;28;20672;-86
2022/05/06 12:46:28;;;;;;;2.53;2.33;;;18.20;79.30;;;;;;5047458;28;20658;-85
2022/05/06 12:51:42;;;;;;;1.90;1.80;;;18.30;79.70;;;;;;5048461;28;20654;-86
2022/05/06 12:54:10;;;;;;;2.57;2.30;;;18.30;80.80;;;;;;5048882;28;20654;-86
2022/05/06 12:56:38;;;;;;;1.80;1.70;;;18.30;81.30;;;;;;5047566;28;21172;-85
2022/05/06 12:59:06;;;;;;;2.40;2.20;;;18.30;82.80;;;;;;5065405;28;21183;-86
2022/05/06 13:01:33;;;;;;;3.27;2.97;;;18.40;79.80;;;;;;5049947;28;21049;-84
2022/05/06 13:04:00;;;;;;;2.00;1.90;;;18.40;79.40;;;;;;5061550;28;20660;-87
2022/05/06 13:06:27;;;;;;;2.03;1.93;;;18.30;78.60;;;;;;5050757;28;20626;-85
2022/05/06 13:08:55;;;;;;;1.97;1.73;;;18.30;78.50;;;;;;5061150;28;20626;-85
2022/05/06 13:11:23;;;;;;;1.80;1.70;;;18.10;81.50;;;;;;5062854;28;21388;-85
2022/05/06 13:13:49;;;;;;;4.53;2.47;;;18.20;82.10;;;;;;5059336;28;20617;-84
2022/05/06 13:16:16;;;;;;;1.67;1.30;;;18.30;80.80;;;;;;5067709;28;20683;-84
2022/05/06 13:18:43;;;;;;;3.20;2.30;;;18.10;82.00;;;;;;5053719;28;20666;-85
2022/05/06 13:21:10;;;;;;;2.00;1.80;;;18.30;83.30;;;;;;5051900;28;20725;-85
2022/05/06 13:23:38;;;;;;;2.60;1.87;;;18.30;82.60;;;;;;5056466;28;20626;-84
2022/05/06 13:26:06;;;;;;;2.07;1.87;;;18.40;82.10;;;;;;5051296;28;20617;-85
2022/05/06 13:28:33;;;;;;;2.23;1.87;;;18.40;80.70;;;;;;5066125;28;20626;-85
2022/05/06 13:31:00;;;;;;;2.50;2.30;;;18.30;82.00;;;;;;5052789;28;21038;-85
2022/05/06 13:33:27;;;;;;;2.67;2.47;;;18.00;80.20;;;;;;5066207;28;20627;-85
2022/05/06 13:35:55;;;;;;;1.93;1.80;;;17.90;83.40;;;;;;5071237;28;20602;-85
2022/05/06 13:38:22;;;;;;;1.80;1.70;;;18.00;82.20;;;;;;5049795;28;20635;-84
2022/05/06 13:40:49;;;;;;;2.87;2.67;;;18.00;83.00;;;;;;5040566;28;20614;-85
2022/05/06 13:43:18;;;;;;;2.20;2.00;;;17.80;81.70;;;;;;5064824;28;20632;-84